Fort McCoy, Florida
Current Conditions -  °F | °C
As of 6:50 PM on Friday 24 Oct 2014 (Local Time) from KOCF Reporting Station
Clear Clear  
Wind Chill: 72°   Ceiling: Unl
Heat Index: 72°   Visibility: 10mi
Dew Point: 50°   Wind: 3mph
Humidity: 46%   Direction: 30°NNE
Pressure: 29.94"   Gusts: NA
Location:  29.36°N, 81.97°W
Report Text: KOCF 242250Z 03003KT 10SM CLR 22/10 A2994
Loading
Personal Weather Stations






























Interactive Weather Map
Tropical Storm Tracking
New forecast layout! Learn more

10-Day Weather Forecast

Advertisements
Track Severe Weather on mobile